Time;durP1;ratioP1;P1;durP2;ratioP2;P2;SDS_P1;SDS_P2;PMS_P1;PMS_P2;Temp;Humidity;BMP_temperature;BMP_pressure;BME280_temperature;BME280_humidity;BME280_pressure;Samples;Min_cycle;Max_cycle;Signal;HPM_P1;HPM_P2
2023/07/25 00:02:25;;;;;;;12.77;11.47;;;;;;;27.09;40.75;94842.53;6147202;22;111303;-67
2023/07/25 00:05:28;;;;;;;14.53;11.37;;;;;;;27.07;40.74;94831.34;6089901;28;109447;-67
2023/07/25 00:08:32;;;;;;;13.57;10.30;;;;;;;26.87;40.11;94843.81;6102612;28;109539;-66
2023/07/25 00:11:36;;;;;;;12.47;11.27;;;;;;;26.87;40.41;94837.66;6114636;28;109489;-66
2023/07/25 00:14:40;;;;;;;14.67;11.67;;;;;;;26.96;40.63;94845.59;6103283;28;109138;-65
2023/07/25 00:17:43;;;;;;;12.60;11.40;;;;;;;26.86;40.70;94838.78;6095713;28;109135;-67
2023/07/25 00:20:46;;;;;;;14.70;11.50;;;;;;;26.76;40.84;94829.34;6094581;28;109556;-67
2023/07/25 00:23:49;;;;;;;12.90;11.47;;;;;;;26.67;41.23;94826.00;6106258;28;109254;-67
2023/07/25 00:26:53;;;;;;;13.43;10.73;;;;;;;26.56;41.43;94825.66;6100291;28;111123;-66
2023/07/25 00:29:56;;;;;;;11.67;10.40;;;;;;;26.76;40.86;94813.22;6108628;28;109380;-67
2023/07/25 00:32:59;;;;;;;11.90;10.80;;;;;;;26.69;41.29;94821.06;6114305;28;109109;-66
2023/07/25 00:36:03;;;;;;;13.87;10.97;;;;;;;26.52;41.29;94814.03;6114461;28;109109;-66
2023/07/25 00:39:06;;;;;;;12.87;11.57;;;;;;;26.49;41.33;94814.72;6100094;28;109847;-66
2023/07/25 00:42:10;;;;;;;13.47;11.60;;;;;;;26.48;41.73;94807.78;6106042;28;109268;-67
2023/07/25 00:45:13;;;;;;;12.40;11.20;;;;;;;26.51;41.93;94806.31;6111451;28;109451;-67
2023/07/25 00:48:17;;;;;;;12.77;11.57;;;;;;;26.69;41.46;94807.63;6111973;28;109180;-66
2023/07/25 00:51:20;;;;;;;12.93;11.53;;;;;;;26.84;41.31;94803.44;6096630;28;110447;-67
2023/07/25 00:54:24;;;;;;;13.77;12.40;;;;;;;26.79;40.79;94801.78;6109142;28;109585;-66
2023/07/25 00:57:30;;;;;;;12.80;11.50;;;;;;;26.76;40.89;94801.69;6090612;28;109186;-66
2023/07/25 01:00:33;;;;;;;12.67;11.37;;;;;;;26.82;40.80;94801.09;6096542;28;111889;-66
2023/07/25 01:03:38;;;;;;;13.10;11.53;;;;;;;26.77;40.93;94801.34;6129450;28;110130;-66
2023/07/25 01:06:42;;;;;;;13.30;11.93;;;;;;;26.75;41.09;94798.25;6130979;28;111047;-66
2023/07/25 01:09:46;;;;;;;12.73;11.20;;;;;;;26.60;41.48;94788.19;6113018;28;109182;-66
2023/07/25 01:12:51;;;;;;;13.87;12.40;;;;;;;26.76;41.44;94796.34;6099564;28;109105;-66
2023/07/25 01:15:55;;;;;;;14.70;12.90;;;;;;;26.81;41.31;94801.44;6112510;28;109154;-66
2023/07/25 01:19:00;;;;;;;13.83;12.50;;;;;;;26.75;41.48;94795.56;6115823;28;109153;-68
2023/07/25 01:22:03;;;;;;;14.13;12.33;;;;;;;26.80;41.21;94791.84;6112025;28;109239;-66
2023/07/25 01:25:08;;;;;;;15.00;12.30;;;;;;;26.90;41.15;94801.31;6122003;28;109307;-67
2023/07/25 01:28:11;;;;;;;14.30;11.57;;;;;;;26.85;41.11;94803.09;6117225;28;109275;-67
2023/07/25 01:31:14;;;;;;;12.60;11.30;;;;;;;26.90;41.02;94801.31;6114545;28;109216;-67
2023/07/25 01:34:17;;;;;;;12.80;11.50;;;;;;;26.91;41.45;94802.88;6119445;28;109816;-67
2023/07/25 01:37:21;;;;;;;13.03;11.70;;;;;;;26.70;41.93;94798.47;6134706;28;109179;-68
2023/07/25 01:40:25;;;;;;;13.53;11.40;;;;;;;26.54;41.66;94786.84;6120695;28;110068;-68
2023/07/25 01:43:28;;;;;;;14.00;12.60;;;;;;;26.42;42.54;94782.31;6108174;28;109576;-68
2023/07/25 01:46:31;;;;;;;14.77;12.57;;;;;;;26.39;42.23;94779.53;6125307;28;110221;-67
2023/07/25 01:49:34;;;;;;;13.67;12.37;;;;;;;26.54;41.82;94784.16;6115873;28;109302;-67
2023/07/25 01:52:37;;;;;;;13.10;11.53;;;;;;;26.73;41.49;94789.75;6113528;28;109315;-68
2023/07/25 01:55:42;;;;;;;13.47;11.40;;;;;;;26.77;41.47;94798.66;6122479;28;109198;-68
2023/07/25 01:58:45;;;;;;;12.97;11.73;;;;;;;26.80;41.78;94800.66;6107545;28;109181;-68
2023/07/25 02:01:48;;;;;;;13.60;12.30;;;;;;;26.82;41.40;94801.09;6111060;28;109128;-68
2023/07/25 02:04:51;;;;;;;15.03;13.53;;;;;;;26.84;41.66;94801.53;6115805;28;109231;-68
2023/07/25 02:07:54;;;;;;;13.60;12.20;;;;;;;26.86;41.76;94807.34;6131807;28;109093;-68
2023/07/25 02:10:59;;;;;;;15.77;13.07;;;;;;;26.87;41.81;94808.91;6110943;28;110096;-68
2023/07/25 02:14:02;;;;;;;13.97;12.67;;;;;;;26.91;42.06;94809.03;6113014;28;109927;-67
2023/07/25 02:17:06;;;;;;;15.67;14.10;;;;;;;26.92;41.74;94815.97;6112830;28;109253;-67
2023/07/25 02:20:10;;;;;;;15.77;12.80;;;;;;;26.77;42.41;94814.78;6105762;28;111924;-69
2023/07/25 02:23:13;;;;;;;13.77;12.37;;;;;;;26.62;42.27;94826.22;6114441;28;109290;-67
2023/07/25 02:26:17;;;;;;;15.97;13.10;;;;;;;26.62;42.33;94823.53;6112258;28;109189;-67
2023/07/25 02:29:20;;;;;;;14.40;12.70;;;;;;;26.51;43.06;94831.25;6121587;28;109182;-59
2023/07/25 02:32:23;;;;;;;14.97;12.80;;;;;;;26.39;42.75;94835.88;6102006;28;110115;-60
2023/07/25 02:35:27;;;;;;;14.40;12.90;;;;;;;26.40;42.45;94842.81;6124101;28;109863;-59
2023/07/25 02:38:30;;;;;;;14.43;12.97;;;;;;;26.22;43.57;94843.06;6130115;28;110160;-60
2023/07/25 02:41:34;;;;;;;15.37;13.00;;;;;;;26.18;43.52;94852.88;6119010;28;109268;-60
2023/07/25 02:44:37;;;;;;;13.73;12.43;;;;;;;26.18;43.11;94844.84;6123532;28;109204;-59
2023/07/25 02:47:40;;;;;;;15.13;12.50;;;;;;;26.14;43.65;94837.81;6133035;28;109528;-59
2023/07/25 02:50:43;;;;;;;14.33;12.83;;;;;;;26.01;43.49;94837.03;6132177;28;109867;-60
2023/07/25 02:53:46;;;;;;;15.30;12.80;;;;;;;26.31;42.55;94842.94;6107270;28;109125;-60
2023/07/25 02:56:51;;;;;;;15.43;13.83;;;;;;;26.39;43.08;94831.31;6111593;28;109283;-59
2023/07/25 02:59:54;;;;;;;17.70;15.90;;;;;;;26.53;42.44;94826.31;6119608;28;109145;-59
2023/07/25 03:02:57;;;;;;;15.50;14.00;;;;;;;26.63;42.57;94833.16;6120219;28;109389;-59
2023/07/25 03:06:00;;;;;;;14.37;12.97;;;;;;;26.70;42.59;94827.22;6102588;28;109067;-60
2023/07/25 03:09:04;;;;;;;14.57;13.03;;;;;;;26.67;42.28;94834.03;6115400;28;111942;-60
2023/07/25 03:12:09;;;;;;;14.23;12.73;;;;;;;26.69;42.05;94831.78;6113962;28;109435;-60
2023/07/25 03:15:12;;;;;;;13.60;12.20;;;;;;;26.73;42.20;94830.03;6115842;28;109113;-60
2023/07/25 03:18:15;;;;;;;13.77;12.47;;;;;;;26.76;41.98;94820.50;6116025;28;109122;-60
2023/07/25 03:21:18;;;;;;;14.63;13.10;;;;;;;26.78;42.04;94826.31;6115335;28;109223;-60
2023/07/25 03:24:21;;;;;;;14.30;12.90;;;;;;;26.76;42.55;94826.66;6123426;28;109462;-59
2023/07/25 03:27:26;;;;;;;25.23;22.67;;;;;;;26.79;42.42;94823.28;6108768;28;109866;-60
2023/07/25 03:30:29;;;;;;;33.53;30.20;;;;;;;26.76;42.78;94821.28;6105946;28;109281;-60
2023/07/25 03:33:32;;;;;;;101.47;92.63;;;;;;;26.84;42.37;94824.94;6127203;28;110053;-61
2023/07/25 03:36:37;;;;;;;74.17;67.43;;;;;;;26.85;42.50;94832.63;6109146;28;108601;-60
2023/07/25 03:39:40;;;;;;;34.63;31.30;;;;;;;26.64;43.12;94825.91;6118768;28;109302;-67
2023/07/25 03:42:44;;;;;;;64.23;58.23;;;;;;;26.69;43.67;94814.91;6124324;28;109149;-68
2023/07/25 03:45:48;;;;;;;35.30;31.87;;;;;;;26.78;43.07;94820.94;6115104;28;109670;-68
2023/07/25 03:48:51;;;;;;;29.17;26.10;;;;;;;26.74;43.44;94828.91;6117404;28;109510;-67
2023/07/25 03:51:54;;;;;;;35.73;32.33;;;;;;;26.83;43.40;94826.84;6104066;28;109351;-68
2023/07/25 03:54:57;;;;;;;48.07;43.67;;;;;;;26.88;43.91;94825.81;6124518;28;109468;-68
2023/07/25 03:58:01;;;;;;;30.80;27.90;;;;;;;26.90;43.74;94839.69;6119899;28;109514;-69
2023/07/25 04:01:05;;;;;;;21.20;19.20;;;;;;;26.89;44.29;94829.28;6120436;28;109195;-67
2023/07/25 04:04:08;;;;;;;19.27;17.37;;;;;;;26.73;44.59;94824.66;6121468;28;109283;-69
2023/07/25 04:07:11;;;;;;;16.10;14.53;;;;;;;26.73;44.10;94823.88;6130436;28;109045;-69
2023/07/25 04:10:14;;;;;;;19.13;17.10;;;;;;;26.68;45.91;94827.56;6111723;28;109202;-68
2023/07/25 04:13:18;;;;;;;18.40;14.27;;;;;;;26.66;46.19;94835.16;6109432;28;109161;-68
2023/07/25 04:16:22;;;;;;;16.10;13.60;;;;;;;26.51;45.23;94828.56;6124446;28;109977;-68
2023/07/25 04:19:25;;;;;;;14.83;13.20;;;;;;;26.55;45.77;94842.13;6113743;28;109525;-69
2023/07/25 04:22:28;;;;;;;17.70;14.23;;;;;;;26.58;44.85;94838.75;6113706;28;109126;-69
2023/07/25 04:25:31;;;;;;;16.17;13.20;;;;;;;26.69;44.92;94842.53;6112590;28;110150;-69
2023/07/25 04:28:36;;;;;;;15.80;12.93;;;;;;;26.70;44.61;94844.09;6114393;28;109189;-69
2023/07/25 04:31:39;;;;;;;16.90;12.97;;;;;;;26.80;44.91;94846.31;6119718;28;109191;-68
2023/07/25 04:34:42;;;;;;;24.20;15.77;;;;;;;26.80;43.96;94846.31;6108244;28;109136;-69
2023/07/25 04:37:45;;;;;;;15.47;13.97;;;;;;;26.82;44.48;94843.28;6119307;28;109231;-68
2023/07/25 04:40:48;;;;;;;16.33;14.53;;;;;;;26.86;44.36;94838.78;6107825;28;109112;-68
2023/07/25 04:43:53;;;;;;;17.67;14.20;;;;;;;26.63;45.36;94830.47;6114351;28;109348;-69
2023/07/25 04:46:56;;;;;;;15.03;13.27;;;;;;;26.47;45.21;94818.88;6109498;28;109621;-68
2023/07/25 04:49:59;;;;;;;18.33;13.67;;;;;;;26.26;44.80;94816.34;6107823;28;110142;-60
2023/07/25 04:53:02;;;;;;;17.00;12.50;;;;;;;26.19;44.55;94824.94;6114086;28;109099;-60
2023/07/25 04:56:05;;;;;;;15.93;13.23;;;;;;;26.06;45.45;94815.34;6133065;28;109116;-60
2023/07/25 04:59:10;;;;;;;20.20;14.00;;;;;;;26.03;44.75;94816.00;6127046;28;109169;-60
2023/07/25 05:02:13;;;;;;;17.57;12.97;;;;;;;25.93;45.71;94813.78;6114578;28;108895;-60
2023/07/25 05:05:16;;;;;;;14.77;12.80;;;;;;;25.92;46.00;94807.63;6125938;28;110261;-60
2023/07/25 05:08:19;;;;;;;16.83;13.60;;;;;;;26.00;46.26;94803.28;6137882;28;109265;-60
2023/07/25 05:11:22;;;;;;;20.50;15.00;;;;;;;26.07;46.28;94808.09;6127561;28;109502;-60
2023/07/25 05:14:27;;;;;;;18.70;15.20;;;;;;;26.26;45.76;94806.38;6137445;28;109390;-60
2023/07/25 05:17:30;;;;;;;17.03;14.33;;;;;;;26.33;45.28;94802.34;6137597;28;108922;-60
2023/07/25 05:20:33;;;;;;;23.00;16.43;;;;;;;26.38;45.58;94807.47;6123286;28;109000;-60
2023/07/25 05:23:36;;;;;;;21.30;17.90;;;;;;;26.49;44.79;94806.66;6104492;28;109168;-61
2023/07/25 05:26:39;;;;;;;21.33;17.10;;;;;;;26.47;45.86;94800.06;6113809;28;109371;-60
2023/07/25 05:29:43;;;;;;;14.07;12.57;;;;;;;26.54;45.61;94805.63;6113268;28;110450;-60
2023/07/25 05:32:49;;;;;;;18.00;14.60;;;;;;;26.65;45.14;94814.03;6082466;28;109112;-61
2023/07/25 05:36:00;;;;;;;23.20;17.93;;;;;;;26.71;44.52;94816.13;6104064;28;110690;-60
2023/07/25 05:39:03;;;;;;;18.90;16.90;;;;;;;26.66;44.78;94807.53;6113769;28;109326;-60
2023/07/25 05:42:07;;;;;;;20.00;16.40;;;;;;;26.70;45.00;94813.78;6137995;28;108934;-60
2023/07/25 05:45:12;;;;;;;22.50;20.50;;;;;;;26.72;45.00;94815.03;6126429;28;109069;-60
2023/07/25 05:48:15;;;;;;;16.83;14.67;;;;;;;26.83;45.04;94812.63;6137277;28;108894;-60
2023/07/25 05:51:18;;;;;;;17.10;15.50;;;;;;;26.90;44.78;94812.06;6136196;28;108958;-60
2023/07/25 05:54:21;;;;;;;19.33;16.17;;;;;;;26.72;44.96;94811.56;6136381;28;109233;-60
2023/07/25 05:57:24;;;;;;;19.20;14.93;;;;;;;26.56;45.40;94803.41;6126195;28;109317;-60
2023/07/25 06:00:29;;;;;;;15.10;13.60;;;;;;;26.52;45.53;94802.50;6126528;28;109285;-60
2023/07/25 06:03:32;;;;;;;15.30;13.80;;;;;;;26.53;44.13;94799.50;6112484;28;109137;-60
2023/07/25 06:06:35;;;;;;;17.33;14.53;;;;;;;26.60;44.35;94798.16;6126673;28;109263;-60
2023/07/25 06:09:38;;;;;;;15.70;14.10;;;;;;;26.72;44.09;94809.66;6128222;28;109329;-60
2023/07/25 06:12:42;;;;;;;17.17;14.20;;;;;;;26.84;44.13;94798.84;6112732;28;109017;-60
2023/07/25 06:15:47;;;;;;;15.80;14.20;;;;;;;26.94;43.89;94792.22;6124554;28;109165;-60
2023/07/25 06:18:50;;;;;;;15.93;14.33;;;;;;;27.06;43.57;94789.50;6126159;28;110109;-60
2023/07/25 06:21:53;;;;;;;17.90;14.20;;;;;;;27.02;43.91;94785.13;6114496;28;109091;-61
2023/07/25 06:24:56;;;;;;;15.53;13.90;;;;;;;27.03;43.60;94789.38;6112512;28;109281;-60
2023/07/25 06:27:59;;;;;;;15.53;13.93;;;;;;;27.14;43.72;94777.00;6112675;28;109334;-61
2023/07/25 06:31:04;;;;;;;15.87;14.23;;;;;;;27.07;43.43;94769.56;6103920;28;109658;-60
2023/07/25 06:34:07;;;;;;;15.20;13.73;;;;;;;27.14;43.47;94764.34;6112217;28;109380;-61
2023/07/25 06:37:10;;;;;;;15.43;13.93;;;;;;;27.09;42.55;94764.63;6134783;28;109371;-60
2023/07/25 06:40:13;;;;;;;14.70;13.20;;;;;;;27.14;43.25;94750.16;6128075;28;110050;-62
2023/07/25 06:43:16;;;;;;;15.97;13.10;;;;;;;26.89;42.96;94748.72;6105177;28;109000;-61
2023/07/25 06:46:24;;;;;;;14.40;12.90;;;;;;;27.03;42.59;94744.50;6111410;28;109196;-61
2023/07/25 06:49:28;;;;;;;16.47;13.83;;;;;;;27.19;43.28;94733.75;6111961;28;109215;-59
2023/07/25 06:52:31;;;;;;;16.60;13.63;;;;;;;27.29;42.36;94740.56;6077166;28;109161;-61
2023/07/25 06:55:34;;;;;;;16.03;13.40;;;;;;;27.22;42.43;94738.47;6103666;28;109152;-61
2023/07/25 06:58:37;;;;;;;19.07;13.30;;;;;;;27.24;42.30;94738.13;6135560;28;109265;-61
2023/07/25 07:01:42;;;;;;;14.53;13.00;;;;;;;27.35;42.65;94739.16;6118257;28;109433;-60
2023/07/25 07:04:45;;;;;;;15.17;12.97;;;;;;;27.36;42.46;94736.13;6102723;28;109881;-61
2023/07/25 07:07:49;;;;;;;16.47;13.37;;;;;;;27.29;42.04;94743.25;6135909;28;110355;-60
2023/07/25 07:10:53;;;;;;;19.43;13.83;;;;;;;27.30;42.17;94744.81;6125363;28;109164;-67
2023/07/25 07:13:56;;;;;;;14.13;12.60;;;;;;;27.36;41.64;94746.09;6111578;28;109483;-67
2023/07/25 07:17:01;;;;;;;18.77;14.60;;;;;;;27.33;41.19;94744.13;6120208;28;109118;-66
2023/07/25 07:20:05;;;;;;;19.67;14.30;;;;;;;27.36;40.96;94741.50;6095805;28;109166;-67
2023/07/25 07:23:08;;;;;;;15.80;14.20;;;;;;;27.38;41.24;94736.56;6113210;28;109414;-67
2023/07/25 07:26:11;;;;;;;16.60;14.90;;;;;;;27.44;41.12;94732.50;6130765;28;112153;-67
2023/07/25 07:29:14;;;;;;;21.63;15.50;;;;;;;27.48;40.69;94724.53;6125420;28;109861;-67
2023/07/25 07:32:18;;;;;;;18.20;15.30;;;;;;;27.61;40.68;94725.22;6103996;28;109367;-67
2023/07/25 07:35:21;;;;;;;17.33;15.50;;;;;;;27.63;40.25;94726.41;6110687;28;109149;-67
2023/07/25 07:38:24;;;;;;;19.10;14.90;;;;;;;27.70;40.34;94731.16;6080143;28;109473;-67
2023/07/25 07:41:28;;;;;;;16.20;14.60;;;;;;;27.72;40.70;94734.28;6105148;28;109192;-67
2023/07/25 07:44:31;;;;;;;17.87;15.83;;;;;;;27.71;40.69;94730.03;6128818;28;109077;-67
2023/07/25 07:47:36;;;;;;;17.20;15.40;;;;;;;27.74;40.21;94723.97;6133381;28;109125;-68
2023/07/25 07:50:39;;;;;;;16.47;14.77;;;;;;;27.74;40.85;94723.97;6100118;28;109319;-66
2023/07/25 07:53:42;;;;;;;21.77;15.20;;;;;;;27.72;41.04;94713.59;6105636;28;109247;-67
2023/07/25 07:56:45;;;;;;;16.47;14.87;;;;;;;27.75;40.29;94715.56;6094255;28;109128;-67
2023/07/25 07:59:48;;;;;;;19.40;15.90;;;;;;;27.79;40.25;94718.31;6128504;28;109410;-65
2023/07/25 08:02:53;;;;;;;17.30;14.50;;;;;;;27.77;40.10;94699.06;6118033;28;109451;-68
2023/07/25 08:05:57;;;;;;;19.13;14.30;;;;;;;27.72;39.99;94696.63;6114983;28;109173;-67
2023/07/25 08:09:00;;;;;;;17.47;14.90;;;;;;;27.71;40.73;94689.69;6115636;28;112498;-67
2023/07/25 08:12:04;;;;;;;15.03;13.43;;;;;;;27.75;40.19;94690.59;6106002;28;109700;-67
2023/07/25 08:15:07;;;;;;;16.00;14.27;;;;;;;27.80;39.88;94689.53;6135076;28;109212;-66
2023/07/25 08:18:12;;;;;;;16.07;13.83;;;;;;;27.75;40.11;94690.59;6134174;28;109244;-67
2023/07/25 08:21:15;;;;;;;15.73;14.10;;;;;;;27.66;39.89;94685.38;6114856;28;109300;-67
2023/07/25 08:24:18;;;;;;;18.47;14.47;;;;;;;27.62;40.00;94686.44;6104092;28;109312;-67
2023/07/25 08:27:21;;;;;;;17.00;14.67;;;;;;;27.72;40.63;94691.25;6114831;28;109133;-67
2023/07/25 08:30:24;;;;;;;17.73;13.80;;;;;;;27.98;40.55;94677.25;6113856;28;109429;-66
2023/07/25 08:33:31;;;;;;;19.93;14.80;;;;;;;27.82;39.98;94681.88;6118365;28;108994;-67
2023/07/25 08:36:34;;;;;;;15.80;13.47;;;;;;;27.75;40.36;94669.84;6114394;28;109112;-67
2023/07/25 08:39:38;;;;;;;14.90;13.50;;;;;;;27.73;39.63;94665.97;6139058;28;109292;-67
2023/07/25 08:42:43;;;;;;;15.17;12.37;;;;;;;27.70;39.91;94672.78;6120398;28;109287;-67
2023/07/25 08:45:49;;;;;;;15.97;12.73;;;;;;;27.77;39.47;94662.22;6111936;28;109228;-68
2023/07/25 08:49:00;;;;;;;17.43;12.50;;;;;;;27.82;39.21;94655.78;6135412;28;110367;-67
2023/07/25 08:52:05;;;;;;;16.00;12.70;;;;;;;27.84;39.75;94656.19;6125440;28;109156;-67
2023/07/25 08:55:09;;;;;;;13.93;12.53;;;;;;;28.03;40.03;94655.47;6113706;28;112554;-66
2023/07/25 08:58:14;;;;;;;15.43;13.87;;;;;;;28.20;39.75;94656.94;6103693;28;111793;-67
2023/07/25 09:01:18;;;;;;;15.10;13.50;;;;;;;28.10;39.99;94654.84;6113614;28;109331;-67
2023/07/25 09:04:24;;;;;;;14.20;12.80;;;;;;;28.50;40.06;94643.72;6114392;28;109085;-67
2023/07/25 09:07:27;;;;;;;15.57;12.77;;;;;;;28.39;40.39;94645.38;6128876;28;109226;-68
2023/07/25 09:10:30;;;;;;;14.30;12.60;;;;;;;28.39;40.40;94651.56;6128250;28;110294;-68
2023/07/25 09:13:34;;;;;;;15.30;13.70;;;;;;;28.58;40.16;94634.66;6137595;28;108816;-68
2023/07/25 09:16:37;;;;;;;16.43;13.70;;;;;;;28.31;40.50;94633.72;6130280;28;109280;-68
2023/07/25 09:19:42;;;;;;;18.63;12.90;;;;;;;28.42;40.92;94634.72;6109153;28;109143;-65
2023/07/25 09:22:47;;;;;;;16.77;12.63;;;;;;;28.67;40.92;94629.00;6108585;28;109148;-68
2023/07/25 09:26:03;;;;;;;16.47;12.70;;;;;;;28.85;39.85;94624.72;6112958;28;109232;-67
2023/07/25 09:29:06;;;;;;;16.23;11.87;;;;;;;28.81;39.70;94619.28;6113548;28;109055;-69
2023/07/25 09:32:19;;;;;;;18.57;16.50;;;;;;;28.93;39.73;94615.63;6102682;28;109582;-70
2023/07/25 09:35:24;;;;;;;17.53;13.73;;;;;;;28.65;39.99;94618.59;6113204;28;109253;-70
2023/07/25 09:38:27;;;;;;;17.80;13.57;;;;;;;28.45;40.52;94622.44;6134619;28;109468;-70
2023/07/25 09:41:31;;;;;;;17.00;12.50;;;;;;;28.61;41.45;94615.84;6131320;28;109145;-70
2023/07/25 09:44:34;;;;;;;14.10;12.60;;;;;;;28.58;41.14;94616.56;6103132;28;110392;-71
2023/07/25 09:47:39;;;;;;;17.40;12.70;;;;;;;28.80;41.67;94614.25;6113375;28;110048;-69
2023/07/25 09:50:45;;;;;;;15.97;11.70;;;;;;;29.00;41.59;94613.03;6112926;28;109280;-68
2023/07/25 09:53:52;;;;;;;16.77;12.03;;;;;;;28.70;41.26;94604.84;6131453;28;109682;-69
2023/07/25 09:56:55;;;;;;;18.97;11.50;;;;;;;28.89;40.56;94601.28;6130802;28;109662;-69
2023/07/25 09:59:59;;;;;;;13.97;11.97;;;;;;;29.00;40.46;94599.56;6126249;28;110207;-70
2023/07/25 10:03:03;;;;;;;14.37;11.87;;;;;;;28.87;40.56;94601.66;6129328;28;109248;-70
2023/07/25 10:06:08;;;;;;;14.17;12.23;;;;;;;28.70;41.20;94593.28;6126561;28;109705;-69
2023/07/25 10:09:13;;;;;;;18.80;13.00;;;;;;;28.59;41.18;94587.75;6137397;28;109763;-69
2023/07/25 10:12:17;;;;;;;16.73;12.70;;;;;;;28.85;41.18;94578.91;6136484;28;108805;-70
2023/07/25 10:15:20;;;;;;;13.97;12.67;;;;;;;28.83;40.87;94570.44;6136704;28;109275;-69
2023/07/25 10:18:27;;;;;;;13.40;12.00;;;;;;;28.97;41.20;94570.66;6107804;28;109064;-70
2023/07/25 10:21:47;;;;;;;17.40;13.50;;;;;;;28.88;41.76;94570.09;6111693;28;109325;-70
2023/07/25 10:24:50;;;;;;;14.33;12.83;;;;;;;28.70;41.52;94560.97;6113120;28;111747;-70
2023/07/25 10:27:55;;;;;;;14.93;12.73;;;;;;;28.67;41.82;94548.22;6107028;28;108821;-65
2023/07/25 10:30:59;;;;;;;14.10;12.27;;;;;;;28.67;41.78;94542.84;6107403;28;109550;-69
2023/07/25 10:34:04;;;;;;;17.37;12.53;;;;;;;28.75;41.77;94541.84;6135447;28;109083;-70
2023/07/25 10:37:22;;;;;;;15.73;13.10;;;;;;;28.74;41.65;94543.75;6128776;28;109244;-70
2023/07/25 10:40:25;;;;;;;14.63;12.10;;;;;;;28.73;42.02;94536.00;6102185;28;109267;-70
2023/07/25 10:43:31;;;;;;;16.17;12.30;;;;;;;28.69;42.08;94525.19;6112480;28;109502;-70
2023/07/25 10:46:35;;;;;;;12.67;11.37;;;;;;;28.78;41.50;94522.25;6115347;28;111909;-71
2023/07/25 10:49:56;;;;;;;13.73;12.03;;;;;;;28.87;41.82;94506.59;6136564;28;109064;-70
2023/07/25 10:53:14;;;;;;;15.27;11.80;;;;;;;28.75;41.58;94502.22;6126203;28;109026;-70
2023/07/25 10:56:19;;;;;;;14.20;12.70;;;;;;;28.74;42.06;94502.56;6137033;28;109203;-70
2023/07/25 10:59:22;;;;;;;12.30;11.23;;;;;;;28.72;42.12;94502.13;6092477;28;109857;-70
2023/07/25 11:02:32;;;;;;;12.63;11.30;;;;;;;28.70;42.40;94486.34;6102218;28;109965;-69
2023/07/25 11:05:35;;;;;;;15.77;11.53;;;;;;;28.67;42.22;94480.91;6111814;28;110259;-69
2023/07/25 11:08:41;;;;;;;13.47;11.90;;;;;;;28.65;41.64;94468.59;6129698;28;109613;-69
2023/07/25 11:11:46;;;;;;;14.50;11.17;;;;;;;28.61;41.79;94454.31;6133512;28;109225;-68
2023/07/25 11:14:50;;;;;;;13.07;11.77;;;;;;;28.63;41.86;94462.78;6101309;28;109156;-69
2023/07/25 11:17:54;;;;;;;15.23;11.87;;;;;;;28.65;41.69;94465.91;6112025;28;109553;-70
2023/07/25 11:21:01;;;;;;;13.30;11.77;;;;;;;28.68;41.93;94452.84;6112743;28;110176;-69
2023/07/25 11:24:07;;;;;;;13.63;11.17;;;;;;;28.73;41.92;94452.53;6111658;28;109151;-69
2023/07/25 11:27:10;;;;;;;15.13;11.83;;;;;;;28.77;42.15;94447.97;6105532;28;109599;-69
2023/07/25 11:30:15;;;;;;;16.00;11.43;;;;;;;28.71;42.14;94444.03;6123389;28;110368;-69
2023/07/25 11:33:19;;;;;;;12.23;10.83;;;;;;;28.72;42.36;94438.28;6127986;28;109277;-70
2023/07/25 11:36:22;;;;;;;13.87;11.50;;;;;;;28.71;42.15;94434.03;6130619;28;109258;-65
2023/07/25 11:39:27;;;;;;;13.43;11.10;;;;;;;28.71;42.42;94422.50;6116528;28;109477;-69
2023/07/25 11:42:30;;;;;;;13.33;11.87;;;;;;;28.76;41.83;94419.50;6115532;28;109315;-69
2023/07/25 11:45:33;;;;;;;13.97;11.70;;;;;;;28.75;41.39;94418.72;6115708;28;109866;-69
2023/07/25 11:48:37;;;;;;;15.07;10.93;;;;;;;28.79;41.45;94414.16;6104833;28;110222;-69
2023/07/25 11:51:41;;;;;;;14.23;10.10;;;;;;;28.90;41.14;94420.47;6116052;28;109263;-68
2023/07/25 11:54:46;;;;;;;16.80;10.23;;;;;;;28.87;40.74;94409.63;6092003;28;109144;-71
2023/07/25 11:57:50;;;;;;;14.60;11.03;;;;;;;28.78;41.31;94404.53;6091400;28;109328;-68
2023/07/25 12:00:54;;;;;;;19.30;10.87;;;;;;;28.77;40.64;94404.91;6096968;28;109613;-69
2023/07/25 12:04:00;;;;;;;17.20;10.63;;;;;;;28.77;39.69;94402.19;6115099;28;111376;-69
2023/07/25 12:07:03;;;;;;;14.00;11.40;;;;;;;28.80;39.56;94390.69;6117019;28;109071;-69
2023/07/25 12:10:08;;;;;;;14.13;10.67;;;;;;;28.78;39.25;94390.28;6134976;28;109501;-69
2023/07/25 12:13:12;;;;;;;15.33;10.20;;;;;;;28.79;39.00;94389.91;6134534;28;109267;-69
2023/07/25 12:16:28;;;;;;;15.37;9.63;;;;;;;28.76;39.03;94371.03;6139445;28;109543;-69
2023/07/25 12:19:33;;;;;;;14.70;10.60;;;;;;;28.76;38.78;94368.34;6138941;28;109156;-70
2023/07/25 12:22:37;;;;;;;16.77;10.10;;;;;;;28.81;38.96;94366.09;6127612;28;109251;-69
2023/07/25 12:25:42;;;;;;;12.13;10.00;;;;;;;28.83;38.55;94371.09;6139240;28;110442;-68
2023/07/25 12:28:46;;;;;;;15.43;9.83;;;;;;;28.83;38.74;94360.34;6138232;28;109594;-69
2023/07/25 12:31:49;;;;;;;13.40;9.33;;;;;;;28.82;38.70;94361.47;6114010;28;109146;-69
2023/07/25 12:34:59;;;;;;;13.23;9.47;;;;;;;28.78;38.78;94353.34;6127717;28;110340;-69
2023/07/25 12:38:02;;;;;;;16.30;10.37;;;;;;;28.76;39.37;94355.66;6138331;28;109376;-69
2023/07/25 12:41:08;;;;;;;14.13;9.83;;;;;;;28.72;38.76;94338.63;6138432;28;109245;-70
2023/07/25 12:44:11;;;;;;;11.73;8.37;;;;;;;28.94;38.50;94342.41;6115718;28;111066;-69
2023/07/25 12:47:14;;;;;;;19.60;8.63;;;;;;;29.18;36.47;94333.06;6110331;28;110380;-69
2023/07/25 12:50:18;;;;;;;15.63;9.10;;;;;;;29.00;37.59;94332.06;6138344;28;109450;-69
2023/07/25 12:53:21;;;;;;;15.60;8.80;;;;;;;28.94;36.83;94318.91;6138551;28;109149;-70
2023/07/25 12:56:26;;;;;;;15.17;7.47;;;;;;;28.92;35.73;94312.34;6127472;28;109124;-69
2023/07/25 12:59:29;;;;;;;15.03;7.60;;;;;;;28.93;36.21;94324.69;6135173;28;111358;-70
2023/07/25 13:02:32;;;;;;;13.07;7.70;;;;;;;28.97;35.84;94311.25;6113091;28;109124;-68
2023/07/25 13:05:35;;;;;;;13.03;7.63;;;;;;;28.98;35.29;94302.78;6114071;28;109011;-67
2023/07/25 13:08:39;;;;;;;14.40;7.00;;;;;;;29.00;33.75;94280.88;6103257;28;108977;-68
2023/07/25 13:11:44;;;;;;;12.00;6.37;;;;;;;29.02;34.72;94297.44;6114095;28;109329;-68
2023/07/25 13:14:47;;;;;;;15.97;7.10;;;;;;;29.04;33.26;94295.16;6113839;28;109138;-67
2023/07/25 13:17:50;;;;;;;10.57;5.10;;;;;;;29.03;32.53;94293.59;6118151;28;109520;-64
2023/07/25 13:20:54;;;;;;;12.27;6.60;;;;;;;29.00;32.71;94278.94;6128686;28;108828;-68
2023/07/25 13:23:58;;;;;;;13.17;5.77;;;;;;;29.03;32.65;94296.28;6124499;28;109293;-67
2023/07/25 13:27:02;;;;;;;11.20;5.60;;;;;;;29.07;32.01;94284.47;6113714;28;109467;-67
2023/07/25 13:30:06;;;;;;;10.63;5.73;;;;;;;29.09;30.75;94284.88;6117845;28;109145;-66
2023/07/25 13:33:10;;;;;;;10.10;5.87;;;;;;;29.13;31.75;94276.81;6118541;28;109221;-67
2023/07/25 13:36:13;;;;;;;16.10;6.30;;;;;;;29.11;31.97;94279.09;6137406;28;109136;-67
2023/07/25 13:39:17;;;;;;;10.30;5.40;;;;;;;29.06;32.08;94272.09;6137584;28;109306;-67
2023/07/25 13:42:23;;;;;;;14.57;6.40;;;;;;;29.12;30.74;94265.25;6126942;28;109216;-67
2023/07/25 13:45:26;;;;;;;8.07;4.50;;;;;;;29.12;30.41;94267.94;6113098;28;109262;-66
2023/07/25 13:48:47;;;;;;;9.50;5.57;;;;;;;29.16;30.25;94266.06;6113462;28;110201;-66
2023/07/25 13:51:50;;;;;;;8.40;5.50;;;;;;;29.13;29.55;94272.19;6112850;28;109209;-67
2023/07/25 13:54:54;;;;;;;12.30;5.43;;;;;;;29.21;29.07;94268.41;6102723;28;109244;-67
2023/07/25 13:57:58;;;;;;;8.90;4.57;;;;;;;29.32;28.32;94273.91;6112751;28;109240;-66